Time;durP1;ratioP1;P1;durP2;ratioP2;P2;SDS_P1;SDS_P2;PMS_P1;PMS_P2;Temp;Humidity;BMP_temperature;BMP_pressure;BME280_temperature;BME280_humidity;BME280_pressure;Samples;Min_cycle;Max_cycle;Signal;HPM_P1;HPM_P2
2022/01/24 00:01:09;;;;;;;9.93;6.88;;;7.00;99.90;;;;;;5055355;28;20086;-54
2022/01/24 00:03:35;;;;;;;10.35;7.20;;;6.90;99.90;;;;;;5055088;28;20037;-50
2022/01/24 00:06:00;;;;;;;10.10;6.95;;;6.90;99.90;;;;;;5055191;28;20494;-51
2022/01/24 00:08:28;;;;;;;10.57;7.53;;;6.80;99.90;;;;;;5037295;28;20054;-51
2022/01/24 00:10:54;;;;;;;12.07;7.82;;;6.80;99.90;;;;;;5055610;28;20040;-51
2022/01/24 00:16:20;;;;;;;11.15;7.80;;;6.80;99.90;;;;;;5055554;28;20025;-52
2022/01/24 00:26:51;;;;;;;12.10;7.90;;;6.90;99.90;;;;;;5055147;28;20031;-49
2022/01/24 00:29:22;;;;;;;9.60;7.07;;;6.90;99.90;;;;;;5054871;28;20389;-50
2022/01/24 00:31:48;;;;;;;13.23;7.60;;;6.80;99.90;;;;;;5055022;28;20067;-50
2022/01/24 00:34:15;;;;;;;12.52;8.70;;;6.90;99.90;;;;;;5054616;28;20029;-51
2022/01/24 00:36:41;;;;;;;11.63;8.45;;;6.90;99.90;;;;;;5053493;28;20032;-50
2022/01/24 00:39:08;;;;;;;10.35;7.97;;;6.80;99.90;;;;;;5036597;28;20036;-50
2022/01/24 00:41:45;;;;;;;13.98;8.80;;;6.90;99.90;;;;;;5055279;28;20024;-50
2022/01/24 00:47:00;;;;;;;11.43;8.43;;;6.90;99.90;;;;;;5054312;28;20081;-53
2022/01/24 00:54:52;;;;;;;12.75;8.82;;;6.90;99.90;;;;;;5054649;28;20036;-54
2022/01/24 00:57:18;;;;;;;13.02;8.93;;;6.90;99.90;;;;;;5054243;28;20137;-50
2022/01/24 00:59:45;;;;;;;13.85;9.10;;;6.90;99.90;;;;;;5054139;28;20024;-52
2022/01/24 01:02:12;;;;;;;12.93;8.98;;;6.90;99.90;;;;;;5055086;28;20052;-51
2022/01/24 01:07:50;;;;;;;14.70;9.77;;;6.70;99.90;;;;;;5054108;28;20025;-51
2022/01/24 01:18:28;;;;;;;17.15;9.80;;;6.70;99.90;;;;;;5053760;28;20427;-52
2022/01/24 01:21:14;;;;;;;16.77;10.05;;;6.70;99.90;;;;;;5053689;28;20029;-53
2022/01/24 01:23:56;;;;;;;14.68;10.23;;;6.70;99.90;;;;;;5054059;28;20033;-50
2022/01/24 01:26:33;;;;;;;14.18;9.60;;;6.60;99.90;;;;;;5054062;28;20122;-53
2022/01/24 01:29:07;;;;;;;14.25;9.20;;;6.60;99.90;;;;;;5035474;28;20078;-52
2022/01/24 01:55:39;;;;;;;11.05;7.90;;;6.60;99.90;;;;;;5054246;28;20025;-52
2022/01/24 01:58:07;;;;;;;13.03;8.23;;;6.60;99.90;;;;;;5053881;28;20078;-51
2022/01/24 02:00:34;;;;;;;12.13;7.88;;;6.70;99.90;;;;;;5052761;28;20282;-53
2022/01/24 02:02:59;;;;;;;13.15;8.35;;;6.60;99.90;;;;;;5053242;28;20455;-50
2022/01/24 02:05:25;;;;;;;14.45;8.40;;;6.70;99.90;;;;;;5053099;28;20056;-53
2022/01/24 02:07:52;;;;;;;11.20;8.65;;;6.60;99.90;;;;;;5077599;22;20043;-72
2022/01/24 02:10:19;;;;;;;13.10;8.35;;;6.70;99.90;;;;;;5074220;28;20029;-73
2022/01/24 02:12:46;;;;;;;13.85;8.55;;;6.70;99.90;;;;;;5073812;28;20074;-73
2022/01/24 02:15:16;;;;;;;14.48;8.55;;;6.60;99.90;;;;;;5074126;28;20070;-73
2022/01/24 02:20:38;;;;;;;11.75;7.93;;;6.60;99.90;;;;;;5073916;28;20492;-74
2022/01/24 02:25:44;;;;;;;12.95;8.63;;;6.50;99.90;;;;;;5074122;28;20086;-73
2022/01/24 02:28:13;;;;;;;14.35;8.57;;;6.50;99.90;;;;;;5076350;28;20059;-74
2022/01/24 02:33:08;;;;;;;14.70;9.00;;;6.50;99.90;;;;;;5075050;28;20016;-74
2022/01/24 02:35:34;;;;;;;16.60;8.30;;;6.50;99.90;;;;;;5073775;28;20021;-74
2022/01/24 02:38:03;;;;;;;12.60;9.00;;;6.50;99.90;;;;;;5055426;28;20111;-74
2022/01/24 02:40:29;;;;;;;12.95;8.07;;;6.50;99.90;;;;;;5073782;28;20035;-74
2022/01/24 02:48:24;;;;;;;13.40;8.77;;;6.50;99.90;;;;;;5073819;28;20401;-73
2022/01/24 02:53:35;;;;;;;13.48;8.82;;;6.60;99.90;;;;;;5074090;28;20104;-73
2022/01/24 02:56:03;;;;;;;16.10;9.63;;;6.50;99.90;;;;;;5073465;28;20442;-74
2022/01/24 02:58:28;;;;;;;19.50;9.60;;;6.50;99.90;;;;;;5057496;28;20036;-74
2022/01/24 03:00:54;;;;;;;12.90;9.05;;;6.50;99.90;;;;;;5059042;28;20025;-72
2022/01/24 03:03:20;;;;;;;13.82;9.18;;;6.60;99.90;;;;;;5075449;28;20154;-72
2022/01/24 03:05:46;;;;;;;12.75;8.60;;;6.60;99.90;;;;;;5076522;28;20031;-72
2022/01/24 03:08:14;;;;;;;15.38;9.18;;;6.60;99.90;;;;;;5058786;28;20037;-73
2022/01/24 03:10:44;;;;;;;14.38;8.23;;;6.60;99.90;;;;;;5061885;28;20031;-72
2022/01/24 03:15:54;;;;;;;14.07;9.13;;;6.60;99.90;;;;;;5084331;28;20025;-74
2022/01/24 03:18:21;;;;;;;15.13;8.98;;;6.60;99.90;;;;;;5080583;28;20032;-73
2022/01/24 03:20:47;;;;;;;15.63;9.07;;;6.60;99.90;;;;;;5081041;28;20024;-74
2022/01/24 03:23:14;;;;;;;14.73;9.88;;;6.60;99.90;;;;;;5080984;28;20066;-74
2022/01/24 03:25:41;;;;;;;14.25;9.15;;;6.60;99.90;;;;;;5079819;28;20024;-74
2022/01/24 03:28:07;;;;;;;13.93;9.30;;;6.60;99.90;;;;;;5060387;28;20024;-73
2022/01/24 03:30:34;;;;;;;13.65;8.55;;;6.60;99.90;;;;;;5079084;28;20088;-74
2022/01/24 03:33:00;;;;;;;13.93;9.52;;;6.60;99.90;;;;;;5077528;28;20032;-74
2022/01/24 03:35:26;;;;;;;13.60;9.20;;;6.70;99.90;;;;;;5077231;28;20039;-73
2022/01/24 03:37:52;;;;;;;15.52;9.85;;;6.70;99.90;;;;;;5078541;28;20039;-73
2022/01/24 03:40:18;;;;;;;15.10;9.18;;;6.60;99.90;;;;;;5078300;28;20021;-74
2022/01/24 03:42:43;;;;;;;13.38;9.05;;;6.60;99.90;;;;;;5078434;28;20024;-73
2022/01/24 03:45:10;;;;;;;13.63;8.93;;;6.60;99.90;;;;;;5078257;28;20029;-74
2022/01/24 03:50:05;;;;;;;14.23;9.57;;;6.60;99.90;;;;;;5079012;28;20547;-74
2022/01/24 03:52:30;;;;;;;15.02;10.02;;;6.60;99.90;;;;;;5079487;28;20029;-74
2022/01/24 03:54:57;;;;;;;19.52;10.70;;;6.80;99.90;;;;;;5078438;28;20028;-74
2022/01/24 03:57:24;;;;;;;17.55;9.93;;;6.70;99.90;;;;;;5060697;28;20044;-72
2022/01/24 03:59:50;;;;;;;17.23;10.18;;;6.70;99.90;;;;;;5082601;28;20024;-73
2022/01/24 04:02:18;;;;;;;18.85;11.32;;;6.60;99.90;;;;;;5080258;28;20025;-73
2022/01/24 04:04:44;;;;;;;20.77;12.05;;;6.60;99.90;;;;;;5077065;28;20112;-73
2022/01/24 04:07:10;;;;;;;20.48;12.25;;;6.60;99.90;;;;;;5076492;28;20060;-74
2022/01/24 04:09:38;;;;;;;19.73;12.40;;;6.60;99.90;;;;;;5075915;28;20129;-73
2022/01/24 04:12:04;;;;;;;20.98;12.65;;;6.60;99.90;;;;;;5076462;28;20513;-73
2022/01/24 04:14:52;;;;;;;22.00;13.73;;;6.60;99.90;;;;;;5057961;28;20077;-73
2022/01/24 04:22:18;;;;;;;21.40;14.18;;;6.60;99.90;;;;;;5075849;28;20024;-73
2022/01/24 04:24:45;;;;;;;20.20;13.48;;;6.60;99.90;;;;;;5076247;28;20025;-73
2022/01/24 04:27:13;;;;;;;23.05;14.20;;;6.70;99.90;;;;;;5075988;28;20021;-73
2022/01/24 04:29:40;;;;;;;21.92;14.38;;;6.70;99.90;;;;;;5076905;28;20478;-73
2022/01/24 04:32:06;;;;;;;22.50;14.93;;;6.70;99.90;;;;;;5076672;28;20496;-72
2022/01/24 04:34:32;;;;;;;24.52;15.43;;;6.70;99.90;;;;;;5076853;28;20389;-74
2022/01/24 04:36:57;;;;;;;22.27;13.65;;;6.70;99.90;;;;;;5057727;28;20016;-73
2022/01/24 04:39:23;;;;;;;23.80;13.93;;;6.70;99.90;;;;;;5075551;28;20025;-73
2022/01/24 04:41:53;;;;;;;24.63;15.25;;;6.70;99.90;;;;;;5076040;28;20028;-73
2022/01/24 04:47:27;;;;;;;21.45;13.68;;;6.70;99.90;;;;;;5075442;28;20025;-74
2022/01/24 04:52:52;;;;;;;22.73;13.73;;;6.70;99.90;;;;;;5075805;28;20028;-73
2022/01/24 04:55:18;;;;;;;21.20;13.90;;;6.70;99.90;;;;;;5076363;28;20044;-74
2022/01/24 04:57:46;;;;;;;20.25;13.43;;;6.70;99.90;;;;;;5075033;28;20060;-73
2022/01/24 05:00:12;;;;;;;22.42;14.27;;;6.80;99.90;;;;;;5075151;28;20016;-74
2022/01/24 05:02:38;;;;;;;23.20;14.15;;;6.80;99.90;;;;;;5074734;28;20025;-74
2022/01/24 05:05:06;;;;;;;23.48;12.95;;;6.80;99.90;;;;;;5075000;28;20043;-73
2022/01/24 05:07:32;;;;;;;22.95;13.40;;;6.80;99.90;;;;;;5074770;28;20036;-72
2022/01/24 05:26:09;;;;;;;23.88;13.02;;;6.80;99.90;;;;;;4973719;28;20039;-73
2022/01/24 05:28:36;;;;;;;21.25;13.02;;;6.70;99.90;;;;;;5053422;28;20036;-72
2022/01/24 05:31:02;;;;;;;25.52;13.10;;;6.70;99.90;;;;;;5062796;28;20166;-73
2022/01/24 05:33:29;;;;;;;19.55;13.10;;;6.80;99.90;;;;;;5078870;28;20371;-74
2022/01/24 05:35:55;;;;;;;18.13;11.25;;;6.80;99.90;;;;;;5074185;28;20425;-74
2022/01/24 05:38:22;;;;;;;20.33;12.98;;;6.80;99.90;;;;;;5056117;28;20075;-73
2022/01/24 05:40:48;;;;;;;24.27;12.90;;;6.70;99.90;;;;;;5074392;28;20028;-73
2022/01/24 05:43:14;;;;;;;19.55;12.88;;;6.70;99.90;;;;;;5074967;28;20362;-73
2022/01/24 05:45:41;;;;;;;18.73;11.75;;;6.70;99.90;;;;;;5076702;28;20059;-75
2022/01/24 05:48:07;;;;;;;19.27;11.93;;;6.70;99.90;;;;;;5080703;28;20070;-73
2022/01/24 05:50:33;;;;;;;20.08;12.38;;;6.70;99.90;;;;;;5089033;28;20040;-74
2022/01/24 05:52:58;;;;;;;19.52;11.68;;;6.70;99.90;;;;;;5071587;28;20032;-73
2022/01/24 05:55:24;;;;;;;18.50;11.45;;;6.70;99.90;;;;;;5081034;28;20431;-74
2022/01/24 05:57:52;;;;;;;21.10;11.65;;;6.70;99.90;;;;;;5077945;28;20064;-73
2022/01/24 06:00:19;;;;;;;19.27;12.32;;;6.80;99.90;;;;;;5075977;28;20052;-74
2022/01/24 06:02:45;;;;;;;19.27;12.45;;;6.80;99.90;;;;;;5072855;28;20044;-73
2022/01/24 06:05:11;;;;;;;19.48;11.98;;;6.70;99.90;;;;;;5086987;28;20020;-73
2022/01/24 06:07:37;;;;;;;18.60;11.63;;;6.80;99.90;;;;;;5082968;28;20020;-73
2022/01/24 06:10:04;;;;;;;20.80;12.32;;;6.70;99.90;;;;;;5079346;28;20024;-73
2022/01/24 06:12:30;;;;;;;20.27;11.82;;;6.70;99.90;;;;;;5079617;28;20029;-73
2022/01/24 06:14:56;;;;;;;20.05;12.32;;;6.70;99.90;;;;;;5080073;28;20031;-74
2022/01/24 06:17:21;;;;;;;17.23;11.10;;;6.70;99.90;;;;;;5081860;28;20056;-74
2022/01/24 06:19:47;;;;;;;18.85;10.93;;;6.70;99.90;;;;;;5078941;28;20024;-74
2022/01/24 06:22:12;;;;;;;20.98;11.63;;;6.70;99.90;;;;;;5074152;28;20086;-73
2022/01/24 06:24:38;;;;;;;20.00;12.18;;;6.70;99.90;;;;;;5073316;28;20074;-74
2022/01/24 06:27:04;;;;;;;21.48;12.32;;;6.70;99.90;;;;;;5073365;28;20025;-73
2022/01/24 06:29:29;;;;;;;24.27;12.00;;;6.70;99.90;;;;;;5072329;28;20021;-73
2022/01/24 06:31:55;;;;;;;22.13;12.68;;;6.60;99.90;;;;;;5072108;28;20059;-73
2022/01/24 06:34:20;;;;;;;23.67;13.00;;;6.70;99.90;;;;;;5073502;28;20048;-73
2022/01/24 06:36:46;;;;;;;20.48;12.60;;;6.70;99.90;;;;;;5073918;28;20047;-73
2022/01/24 06:39:14;;;;;;;22.65;13.02;;;6.70;99.90;;;;;;5073944;28;20029;-73
2022/01/24 06:41:41;;;;;;;23.52;12.60;;;6.70;99.90;;;;;;5074681;28;20043;-73
2022/01/24 06:44:07;;;;;;;22.17;13.32;;;6.60;99.90;;;;;;5072666;28;20070;-73
2022/01/24 06:46:32;;;;;;;22.67;13.00;;;6.60;99.90;;;;;;5076663;28;20435;-73
2022/01/24 06:48:58;;;;;;;20.00;11.73;;;6.70;99.90;;;;;;5077521;28;20078;-74
2022/01/24 06:51:24;;;;;;;23.13;13.80;;;6.70;99.90;;;;;;5075963;28;20033;-74
2022/01/24 06:53:50;;;;;;;23.08;14.02;;;6.70;99.90;;;;;;5077544;28;20137;-73
2022/01/24 06:56:16;;;;;;;26.75;13.63;;;6.70;99.90;;;;;;5073903;28;20031;-73
2022/01/24 06:58:42;;;;;;;21.35;13.02;;;6.70;99.90;;;;;;5076597;28;20029;-73
2022/01/24 07:01:08;;;;;;;21.67;13.18;;;6.80;99.90;;;;;;5082191;28;20055;-72
2022/01/24 07:03:34;;;;;;;26.27;14.43;;;6.80;99.90;;;;;;5076887;28;20017;-73
2022/01/24 07:06:00;;;;;;;24.10;14.20;;;6.80;99.90;;;;;;5076847;28;20086;-73
2022/01/24 07:08:26;;;;;;;25.02;14.68;;;6.80;99.90;;;;;;5076792;28;20036;-73
2022/01/24 07:10:52;;;;;;;23.63;13.80;;;6.80;99.90;;;;;;5077119;28;20023;-73
2022/01/24 07:13:21;;;;;;;25.52;14.57;;;6.70;99.90;;;;;;5078501;28;20396;-73
2022/01/24 07:15:52;;;;;;;27.17;14.27;;;6.80;99.90;;;;;;5077077;28;20029;-73
2022/01/24 07:20:53;;;;;;;22.17;13.65;;;6.70;99.90;;;;;;5077201;28;20143;-74
2022/01/24 07:23:18;;;;;;;29.25;15.05;;;6.70;99.90;;;;;;5076773;28;20074;-74
2022/01/24 07:25:44;;;;;;;23.92;14.57;;;6.70;99.90;;;;;;5075482;28;20025;-73
2022/01/24 07:28:10;;;;;;;24.52;14.10;;;6.70;99.90;;;;;;5076998;28;20028;-74
2022/01/24 07:30:36;;;;;;;28.02;15.73;;;6.70;99.90;;;;;;5077154;28;20028;-74
2022/01/24 07:33:02;;;;;;;24.77;14.77;;;6.70;99.90;;;;;;5076591;28;20028;-74
2022/01/24 07:35:27;;;;;;;24.77;14.52;;;6.70;99.90;;;;;;5076703;28;20083;-73
2022/01/24 07:37:53;;;;;;;28.80;15.75;;;6.70;99.90;;;;;;5075360;28;20032;-73
2022/01/24 07:40:20;;;;;;;25.05;14.77;;;6.80;99.90;;;;;;5076342;28;20017;-73
2022/01/24 07:45:18;;;;;;;32.05;15.70;;;6.70;99.90;;;;;;5076781;28;20032;-73
2022/01/24 07:47:47;;;;;;;25.92;14.80;;;6.70;99.90;;;;;;5074835;28;20024;-73
2022/01/24 07:50:13;;;;;;;26.13;14.88;;;6.70;99.90;;;;;;5076266;28;20016;-74
2022/01/24 07:52:39;;;;;;;26.95;14.07;;;6.70;99.90;;;;;;5076060;28;20385;-74
2022/01/24 07:55:05;;;;;;;25.88;14.70;;;6.70;99.90;;;;;;5076101;28;20032;-74
2022/01/24 07:57:30;;;;;;;26.83;15.88;;;6.70;99.90;;;;;;5073790;28;20132;-73
2022/01/24 07:59:56;;;;;;;25.83;15.25;;;6.70;99.90;;;;;;5076257;28;20104;-74
2022/01/24 08:02:21;;;;;;;27.63;14.43;;;6.70;99.90;;;;;;5076590;28;20062;-73
2022/01/24 08:04:47;;;;;;;26.92;15.30;;;6.70;99.90;;;;;;5076385;28;20390;-74
2022/01/24 08:07:13;;;;;;;26.95;15.23;;;6.80;99.90;;;;;;5076497;28;20462;-74
2022/01/24 08:09:38;;;;;;;23.83;13.80;;;6.80;99.90;;;;;;5110198;22;20049;-70
2022/01/24 08:12:05;;;;;;;23.10;14.32;;;6.90;99.90;;;;;;5079000;28;20028;-69
2022/01/24 08:14:31;;;;;;;26.05;14.25;;;6.80;99.90;;;;;;5081961;28;20070;-70
2022/01/24 08:16:56;;;;;;;24.75;14.48;;;6.80;99.90;;;;;;5077574;28;20020;-74
2022/01/24 08:19:22;;;;;;;23.42;14.73;;;6.80;99.90;;;;;;5081817;28;20027;-69
2022/01/24 08:21:48;;;;;;;25.48;14.30;;;6.80;99.90;;;;;;5081055;28;20039;-70
2022/01/24 08:24:13;;;;;;;21.98;13.40;;;6.90;99.90;;;;;;5085121;28;20497;-71
2022/01/24 08:26:39;;;;;;;23.95;13.50;;;6.90;99.90;;;;;;5080354;28;20079;-70
2022/01/24 08:29:05;;;;;;;24.48;13.50;;;6.90;99.90;;;;;;5080384;28;20028;-70
2022/01/24 08:31:31;;;;;;;22.38;12.95;;;6.90;99.90;;;;;;5084076;28;20032;-70
2022/01/24 08:33:57;;;;;;;22.88;13.95;;;6.80;99.90;;;;;;5058522;28;20028;-70
2022/01/24 08:36:23;;;;;;;21.90;12.73;;;6.80;99.90;;;;;;5075936;28;20029;-69
2022/01/24 08:38:53;;;;;;;28.75;14.35;;;6.80;99.90;;;;;;5075519;28;20037;-68
2022/01/24 08:41:38;;;;;;;23.83;14.00;;;6.70;99.90;;;;;;5075367;28;20395;-68
2022/01/24 08:46:49;;;;;;;20.65;13.45;;;6.80;99.90;;;;;;5075295;28;20028;-68
2022/01/24 08:49:15;;;;;;;22.70;13.20;;;6.90;99.90;;;;;;5075100;28;20390;-68
2022/01/24 08:51:42;;;;;;;26.13;14.40;;;6.90;99.90;;;;;;5075406;28;20136;-68
2022/01/24 08:54:08;;;;;;;27.65;14.45;;;6.80;99.90;;;;;;5074746;28;20017;-68
2022/01/24 08:56:34;;;;;;;22.88;13.27;;;6.80;99.90;;;;;;5075349;28;20351;-68
2022/01/24 08:59:01;;;;;;;25.83;14.35;;;6.80;99.90;;;;;;5075026;28;20035;-68
2022/01/24 09:01:26;;;;;;;24.52;13.63;;;6.80;99.90;;;;;;5074898;28;20020;-68
2022/01/24 09:03:52;;;;;;;23.05;13.57;;;6.90;99.90;;;;;;5074969;28;20024;-69
2022/01/24 09:06:19;;;;;;;22.50;13.30;;;6.90;99.90;;;;;;5074660;28;20103;-68
2022/01/24 09:08:45;;;;;;;26.77;12.70;;;7.00;99.90;;;;;;5074232;28;20031;-69
2022/01/24 09:11:11;;;;;;;25.50;13.80;;;7.00;99.90;;;;;;5074426;28;20101;-69
2022/01/24 09:13:37;;;;;;;23.95;13.75;;;7.00;99.90;;;;;;5074544;28;20031;-69
2022/01/24 09:16:03;;;;;;;26.25;14.23;;;6.90;99.90;;;;;;5056376;28;20028;-68
2022/01/24 09:18:29;;;;;;;28.27;15.00;;;6.80;99.90;;;;;;5056347;28;20032;-68
2022/01/24 09:20:56;;;;;;;25.65;13.82;;;6.80;99.90;;;;;;5074856;28;20021;-68
2022/01/24 09:23:22;;;;;;;25.75;13.95;;;6.90;99.90;;;;;;5074641;28;20486;-68
2022/01/24 09:25:49;;;;;;;24.20;13.90;;;6.90;99.90;;;;;;5074521;28;20056;-68
2022/01/24 09:28:15;;;;;;;25.17;14.85;;;6.90;99.90;;;;;;5074860;28;20537;-68
2022/01/24 09:30:41;;;;;;;24.33;13.57;;;6.90;99.90;;;;;;5074111;28;20071;-68
2022/01/24 09:33:11;;;;;;;22.80;13.13;;;6.90;99.90;;;;;;5074317;28;20116;-69
2022/01/24 09:35:37;;;;;;;24.77;13.38;;;6.90;99.90;;;;;;5074951;28;20470;-68
2022/01/24 09:38:04;;;;;;;24.77;13.38;;;7.00;99.90;;;;;;5074023;28;20079;-68
2022/01/24 09:40:29;;;;;;;24.40;13.13;;;7.00;99.90;;;;;;5057349;28;20424;-68
2022/01/24 09:42:55;;;;;;;25.40;13.65;;;7.00;99.90;;;;;;5074383;28;20031;-68
2022/01/24 09:45:21;;;;;;;21.02;12.85;;;7.00;99.90;;;;;;5073938;28;20029;-68
2022/01/24 09:47:47;;;;;;;24.35;13.45;;;7.00;99.90;;;;;;5073851;28;20389;-68
2022/01/24 09:50:14;;;;;;;22.40;12.90;;;7.00;99.90;;;;;;5074347;28;20021;-68
2022/01/24 09:52:42;;;;;;;23.17;13.27;;;7.00;99.90;;;;;;5074302;28;20028;-68
2022/01/24 09:55:08;;;;;;;24.55;12.98;;;7.00;99.90;;;;;;5074692;28;20048;-68
2022/01/24 09:57:34;;;;;;;27.13;14.32;;;7.00;99.90;;;;;;5074240;28;20099;-68
2022/01/24 10:00:00;;;;;;;25.02;12.65;;;7.00;99.90;;;;;;5074491;28;20460;-68
2022/01/24 10:02:26;;;;;;;23.55;14.57;;;7.10;99.90;;;;;;5056278;28;20028;-68
2022/01/24 10:05:10;;;;;;;26.23;13.15;;;7.10;99.90;;;;;;5074769;28;20025;-68
2022/01/24 10:07:38;;;;;;;21.02;12.40;;;7.10;99.90;;;;;;5074936;28;20024;-68
2022/01/24 10:10:04;;;;;;;24.50;13.73;;;7.10;99.90;;;;;;5073950;28;20477;-68
2022/01/24 10:18:00;;;;;;;23.08;13.02;;;7.20;99.90;;;;;;5074004;28;20084;-68
2022/01/24 10:20:29;;;;;;;24.67;13.73;;;7.20;99.90;;;;;;5074011;28;20478;-69
2022/01/24 10:23:17;;;;;;;26.00;13.15;;;7.20;99.90;;;;;;5056128;28;20028;-68
2022/01/24 10:26:00;;;;;;;20.80;11.57;;;7.30;99.90;;;;;;5074706;28;20020;-68
2022/01/24 10:28:27;;;;;;;21.02;11.15;;;7.40;99.90;;;;;;5082367;28;20043;-69
2022/01/24 10:31:05;;;;;;;22.15;11.80;;;7.40;99.90;;;;;;5056653;28;20470;-68
2022/01/24 10:33:30;;;;;;;26.02;13.40;;;7.40;99.90;;;;;;5078470;28;20024;-69
2022/01/24 10:35:56;;;;;;;25.85;13.65;;;7.40;99.90;;;;;;5068173;28;20021;-70
2022/01/24 10:38:42;;;;;;;24.05;13.23;;;7.50;99.90;;;;;;5075512;28;20496;-68
2022/01/24 10:41:25;;;;;;;23.20;13.57;;;7.40;99.90;;;;;;5056200;28;20100;-68
2022/01/24 10:43:58;;;;;;;20.98;12.80;;;7.40;99.90;;;;;;5073737;28;20099;-68
2022/01/24 10:46:26;;;;;;;19.13;11.75;;;7.40;99.90;;;;;;5073885;28;20063;-69
2022/01/24 10:49:09;;;;;;;24.38;13.25;;;7.40;99.90;;;;;;5073279;28;20393;-68
2022/01/24 10:51:41;;;;;;;20.60;11.77;;;7.40;99.90;;;;;;5074160;28;20104;-68
2022/01/24 10:54:06;;;;;;;;;;;7.40;99.90;;;;;;5073895;28;20019;-69
2022/01/24 10:56:32;;;;;;;18.58;11.40;;;7.40;99.90;;;;;;5072728;28;19904;-69
2022/01/24 10:59:18;;;;;;;21.13;12.02;;;7.40;99.90;;;;;;5054764;28;20486;-68
2022/01/24 11:01:55;;;;;;;20.95;12.68;;;7.40;99.90;;;;;;5073085;28;20035;-68
2022/01/24 11:04:24;;;;;;;18.83;12.50;;;7.40;99.90;;;;;;5073757;28;20049;-68
2022/01/24 11:06:54;;;;;;;20.70;11.43;;;7.40;99.90;;;;;;5073725;28;20508;-69
2022/01/24 11:09:27;;;;;;;17.30;10.00;;;7.40;99.90;;;;;;5073116;28;20078;-69
2022/01/24 11:12:06;;;;;;;19.63;10.23;;;7.50;99.90;;;;;;5074107;28;20504;-68
2022/01/24 11:14:32;;;;;;;18.60;9.60;;;7.50;99.90;;;;;;5055482;28;20174;-68
2022/01/24 11:16:59;;;;;;;14.52;8.88;;;7.50;99.90;;;;;;5073674;28;20047;-67
2022/01/24 11:19:36;;;;;;;15.57;9.57;;;7.50;99.90;;;;;;5073634;28;20053;-67
2022/01/24 11:22:05;;;;;;;18.42;10.52;;;7.50;99.90;;;;;;5073656;28;20140;-68
2022/01/24 11:24:45;;;;;;;16.20;10.40;;;7.50;99.90;;;;;;5073604;28;20020;-69
2022/01/24 11:27:11;;;;;;;18.90;10.73;;;7.40;99.90;;;;;;5055295;28;20032;-68
2022/01/24 11:29:37;;;;;;;17.17;11.02;;;7.50;99.90;;;;;;5073063;28;20405;-68
2022/01/24 11:32:36;;;;;;;20.00;11.05;;;7.40;99.90;;;;;;5055631;28;20050;-68
2022/01/24 11:35:02;;;;;;;19.55;11.55;;;7.40;99.90;;;;;;5032732;28;20536;-68
2022/01/24 11:37:44;;;;;;;16.77;10.40;;;7.30;99.90;;;;;;5076185;28;20037;-68
2022/01/24 11:40:20;;;;;;;18.13;10.43;;;7.30;99.90;;;;;;5077207;28;20024;-67
2022/01/24 11:42:47;;;;;;;20.33;11.25;;;7.20;99.90;;;;;;5076835;28;20389;-69
2022/01/24 11:45:18;;;;;;;18.15;10.98;;;7.20;99.90;;;;;;5076491;28;20023;-68
2022/01/24 11:47:46;;;;;;;19.25;10.90;;;7.20;99.90;;;;;;5076927;28;20112;-68
2022/01/24 11:50:24;;;;;;;17.40;10.27;;;7.20;99.90;;;;;;5058559;28;20450;-68
2022/01/24 11:52:51;;;;;;;18.73;10.98;;;7.20;99.90;;;;;;5076589;28;20021;-68
2022/01/24 11:55:30;;;;;;;24.02;12.48;;;7.00;99.90;;;;;;5076523;28;20158;-68
2022/01/24 11:58:05;;;;;;;20.13;11.35;;;7.10;99.90;;;;;;5076255;28;20552;-68
2022/01/24 12:00:38;;;;;;;26.75;15.27;;;7.10;99.90;;;;;;5076030;28;20039;-67
2022/01/24 12:03:23;;;;;;;27.85;13.95;;;7.20;99.90;;;;;;5076383;28;20021;-66
2022/01/24 12:05:53;;;;;;;31.05;15.73;;;7.20;99.90;;;;;;5058092;28;20036;-67
2022/01/24 12:08:41;;;;;;;30.70;16.00;;;7.20;99.90;;;;;;5076584;28;20513;-66
2022/01/24 12:11:13;;;;;;;29.67;16.42;;;7.20;99.90;;;;;;5058321;28;20028;-68
2022/01/24 12:13:52;;;;;;;28.90;15.32;;;7.30;99.90;;;;;;5076644;28;20028;-66
2022/01/24 12:16:18;;;;;;;28.80;15.70;;;7.30;99.90;;;;;;5076710;28;20485;-66
2022/01/24 12:18:46;;;;;;;33.45;17.05;;;7.40;99.90;;;;;;5077191;28;20024;-67
2022/01/24 12:21:14;;;;;;;30.60;15.82;;;7.50;99.90;;;;;;5076232;28;20108;-69
2022/01/24 12:23:44;;;;;;;30.27;15.73;;;7.40;99.90;;;;;;5076895;28;20074;-69
2022/01/24 12:26:13;;;;;;;33.25;17.85;;;7.40;99.90;;;;;;5059121;28;20482;-69
2022/01/24 12:28:41;;;;;;;33.97;17.35;;;7.40;99.90;;;;;;5079633;28;20040;-67
2022/01/24 12:31:10;;;;;;;37.53;17.80;;;7.40;99.90;;;;;;5080623;28;20024;-68
2022/01/24 12:33:40;;;;;;;41.92;21.50;;;7.30;99.90;;;;;;5084594;28;20107;-68
2022/01/24 12:36:11;;;;;;;47.92;20.92;;;7.30;99.90;;;;;;5077870;28;20032;-67
2022/01/24 12:38:44;;;;;;;;;;;7.30;99.90;;;;;;5065932;28;20028;-68
2022/01/24 12:41:23;;;;;;;49.72;23.00;;;7.30;99.90;;;;;;5068821;28;19953;-69
2022/01/24 12:46:17;;;;;;;48.30;22.88;;;7.20;99.90;;;;;;5079406;28;20030;-68
2022/01/24 12:46:37;;;;;;;51.03;23.75;;;7.20;99.90;;;;;;5075827;28;20036;-68
2022/01/24 12:49:06;;;;;;;51.28;25.48;;;7.10;99.90;;;;;;5058513;28;20041;-68
2022/01/24 12:51:35;;;;;;;50.58;23.42;;;7.10;99.90;;;;;;5075410;28;20023;-68
2022/01/24 12:54:03;;;;;;;56.30;24.33;;;7.10;99.90;;;;;;5057433;28;20029;-67
2022/01/24 12:56:31;;;;;;;48.80;24.00;;;7.10;99.90;;;;;;5075099;28;20024;-67
2022/01/24 12:58:57;;;;;;;53.55;23.88;;;7.10;99.90;;;;;;5075420;28;20417;-67
2022/01/24 13:01:30;;;;;;;50.45;24.90;;;7.00;99.90;;;;;;5075647;28;20118;-67
2022/01/24 13:04:02;;;;;;;52.00;24.67;;;7.00;99.90;;;;;;5074984;28;20074;-67
2022/01/24 13:06:35;;;;;;;45.00;23.05;;;7.00;99.90;;;;;;5075189;28;20033;-67
2022/01/24 13:09:03;;;;;;;47.60;23.60;;;7.00;99.90;;;;;;5074412;28;20493;-67
2022/01/24 13:11:30;;;;;;;47.38;22.42;;;7.00;99.90;;;;;;5075062;28;20016;-67
2022/01/24 13:14:06;;;;;;;50.53;25.70;;;7.00;99.90;;;;;;5075327;28;20020;-66
2022/01/24 13:22:40;;;;;;;56.22;24.20;;;7.00;99.90;;;;;;5075314;28;20035;-66
2022/01/24 13:25:14;;;;;;;54.08;25.02;;;7.00;99.90;;;;;;5074703;28;20135;-66
2022/01/24 13:27:45;;;;;;;47.13;23.15;;;7.10;99.90;;;;;;5074814;28;20099;-68
2022/01/24 13:30:24;;;;;;;54.83;24.83;;;7.10;99.90;;;;;;5074767;28;20501;-67
2022/01/24 13:32:53;;;;;;;41.50;21.70;;;7.10;99.90;;;;;;5075124;28;20020;-67
2022/01/24 13:35:32;;;;;;;47.33;23.08;;;7.10;99.90;;;;;;5074831;28;20070;-67
2022/01/24 13:38:07;;;;;;;49.47;22.75;;;7.10;99.90;;;;;;5074599;28;20358;-67
2022/01/24 13:43:39;;;;;;;49.67;23.42;;;7.00;99.90;;;;;;5074834;28;20024;-67
2022/01/24 13:46:35;;;;;;;48.83;23.75;;;7.00;99.90;;;;;;5057176;28;20446;-67
2022/01/24 13:49:04;;;;;;;47.92;23.13;;;7.00;99.90;;;;;;5073449;28;20040;-67
2022/01/24 13:51:49;;;;;;;48.35;22.55;;;7.00;99.90;;;;;;5074305;28;20024;-67
2022/01/24 13:54:27;;;;;;;51.97;23.35;;;7.00;99.90;;;;;;5074826;28;20021;-67
2022/01/24 13:57:06;;;;;;;46.67;22.15;;;6.90;99.90;;;;;;5074068;28;20024;-67
2022/01/24 13:59:32;;;;;;;55.08;24.13;;;6.90;99.90;;;;;;5056155;28;20024;-68
2022/01/24 14:01:59;;;;;;;50.05;22.90;;;6.90;99.90;;;;;;5073822;28;20104;-68
2022/01/24 14:04:34;;;;;;;40.50;20.90;;;6.90;99.90;;;;;;5056689;28;20545;-67
2022/01/24 14:07:12;;;;;;;48.65;23.50;;;6.90;99.90;;;;;;5074978;28;20047;-67
2022/01/24 14:09:46;;;;;;;54.85;25.63;;;6.90;99.90;;;;;;5100747;22;20048;-70
2022/01/24 14:12:15;;;;;;;53.53;24.35;;;7.00;99.90;;;;;;5080491;28;20030;-70
2022/01/24 14:14:46;;;;;;;47.55;23.73;;;6.90;99.90;;;;;;5076012;28;20527;-71
2022/01/24 14:19:43;;;;;;;50.50;24.02;;;6.90;99.90;;;;;;5075342;28;20039;-70
2022/01/24 14:22:14;;;;;;;48.10;22.08;;;6.90;99.90;;;;;;5074809;28;20024;-70
2022/01/24 14:24:54;;;;;;;46.97;22.25;;;6.90;99.90;;;;;;5057050;28;20070;-70
2022/01/24 14:27:40;;;;;;;49.58;23.92;;;6.90;99.90;;;;;;5074721;28;20028;-70
2022/01/24 14:30:12;;;;;;;51.28;23.05;;;6.90;99.90;;;;;;5075541;28;20029;-70
2022/01/24 14:32:45;;;;;;;49.95;23.30;;;6.80;99.90;;;;;;5074803;28;20070;-70
2022/01/24 14:35:12;;;;;;;44.78;22.27;;;6.90;99.90;;;;;;5075211;28;20028;-69
2022/01/24 14:37:53;;;;;;;45.70;22.65;;;6.90;99.90;;;;;;5076297;28;20501;-70
2022/01/24 14:40:46;;;;;;;44.90;21.33;;;6.80;99.90;;;;;;5056683;28;20477;-70
2022/01/24 14:46:01;;;;;;;48.33;22.15;;;6.80;99.90;;;;;;5074792;28;20116;-70
2022/01/24 14:48:27;;;;;;;48.17;22.38;;;6.80;99.90;;;;;;5057113;28;20024;-69
2022/01/24 14:50:52;;;;;;;55.60;24.75;;;6.80;99.90;;;;;;5058203;28;20381;-69
2022/01/24 14:53:18;;;;;;;47.17;22.98;;;6.80;99.90;;;;;;5075242;28;20017;-69
2022/01/24 14:55:44;;;;;;;52.65;24.25;;;6.80;99.90;;;;;;5074511;28;20023;-70
2022/01/24 14:58:09;;;;;;;48.72;24.00;;;6.80;99.90;;;;;;5074928;28;20154;-69
2022/01/24 15:00:35;;;;;;;50.58;23.90;;;6.70;99.90;;;;;;5074061;28;20151;-69